Alpine Moment — VREV7 — position and weather

sailwx.info

Track history (hours):
 
Tides and Currents Weather Stations Pressure Air Temp Water Temp Dewpoint Dewpoint Depression Visibility Wind Speed Wind Dir Waves Ship Positions

Alpine Moment

Last reported at 2016-May-18 00:08 UTC. Time now 2016-May-28 10:02 UTC.
Position N 01°55' E 102°21'.
Warning: this ship's position is 10 days out of date.

Length 183 m; draft 9.9 m.

Type: Tanker. MMSI: 477185800.

Date/timePositionNaut miles runAvg speedWind from/ knotsBaromVisibWave heightAir tempDewpointWater temp
2016-May-18 00:08N 01°55' E 102°21'813.8
2016-May-17 23:33N 01°52' E 102°28'1413.5
2016-May-17 22:33N 01°46' E 102°41'1513.7
2016-May-17 21:28N 01°40' E 102°54'5112.8
2016-May-17 17:29N 01°12' E 103°37'5 5.9
2016-May-17 16:33N 01°15' E 103°41'0 0.0
2016-May-17 06:11N 01°15' E 103°41'0 0.0
2016-May-17 05:23N 01°15' E 103°41'0 0.0
2016-May-17 04:05N 01°15' E 103°41'0 0.0
2016-May-17 03:23N 01°15' E 103°41'0 0.0
2016-May-17 01:20N 01°15' E 103°41'0 0.0
2016-May-17 00:17N 01°15' E 103°41'0 0.0
2016-May-16 23:23N 01°15' E 103°41'0 0.0
2016-May-16 22:05N 01°15' E 103°41'0 0.0
2016-May-16 21:14N 01°15' E 103°41'0 0.0
2016-May-16 19:17N 01°15' E 103°41'0 0.0
2016-May-16 15:32N 01°15' E 103°41'0 0.0
2016-May-16 14:23N 01°15' E 103°41'0 0.0
2016-May-16 13:29N 01°15' E 103°41'0 0.0
2016-May-16 12:11N 01°15' E 103°41'0 0.0
2016-May-15 19:29N 01°15' E 103°41'0 0.0
2016-May-15 13:29N 01°15' E 103°41'0 0.0
2016-May-15 11:32N 01°15' E 103°41'0 0.0
2016-May-15 08:33N 01°15' E 103°41'0 0.0
2016-May-15 07:33N 01°15' E 103°41'6 5.8
2016-May-15 06:33N 01°14' E 103°47'2 1.6
2016-May-15 05:22N 01°13' E 103°49'0 0.0
2016-May-15 04:31N 01°13' E 103°49'0 0.1
2016-May-15 03:33N 01°13' E 103°49'6 5.6
2016-May-15 02:33N 01°14' E 103°54'6 5.8
2016-May-15 01:34N 01°16' E 103°60'2 2.4
2016-May-15 00:33N 01°16' E 104°02'8 5.9
2016-May-14 23:09N 01°19' E 104°10'1 0.0
2016-May-13 03:32N 01°19' E 104°10'3 1.4
2016-May-13 01:29N 01°17' E 104°08'6 6.5
2016-May-13 00:32N 01°15' E 104°02'1111.0
2016-May-12 23:33N 01°12' E 103°52'4 4.4
2016-May-12 22:33N 01°14' E 103°48'0 0.1
2016-May-12 21:29N 01°14' E 103°48'0 0.0
2016-May-12 20:29N 01°14' E 103°48'0 0.0
2016-May-12 19:26N 01°14' E 103°48'0 0.0
2016-May-12 18:32N 01°14' E 103°48'0 0.1
2016-May-12 17:32N 01°14' E 103°48'0 0.1
2016-May-12 16:32N 01°14' E 103°48'0 0.0
2016-May-12 15:32N 01°14' E 103°48'0 0.0
2016-May-12 14:32N 01°14' E 103°48'0 0.0
2016-May-12 13:32N 01°14' E 103°48'0 0.0
2016-May-12 12:32N 01°14' E 103°48'0 0.0
2016-May-12 11:32N 01°14' E 103°48'0 0.0
2016-May-12 10:29N 01°14' E 103°48'0 0.0
2016-May-12 09:32N 01°14' E 103°48'0 0.0
2016-May-12 08:29N 01°14' E 103°48'0 0.0
2016-May-12 07:32N 01°14' E 103°48'0 0.2
2016-May-12 06:32N 01°14' E 103°48'0 0.0
2016-May-12 05:29N 01°14' E 103°48'0 0.2
2016-May-12 04:32N 01°14' E 103°48'4 0.1
2016-May-10 03:32N 01°14' E 103°44'2 2.1
2016-May-10 02:33N 01°15' E 103°46'3 2.9
2016-May-10 01:32N 01°13' E 103°49'0 0.0
2016-May-10 00:23N 01°13' E 103°49'0 0.0
2016-May-09 23:32N 01°13' E 103°49'3 3.0
2016-May-09 22:33N 01°13' E 103°52'9 9.1
2016-May-09 21:33N 01°16' E 104°00'7 6.7
2016-May-09 20:33N 01°16' E 104°07'  
Track history (hours):
 
Tides and Currents Weather Stations Pressure Air Temp Water Temp Dewpoint Dewpoint Depression Visibility Wind Speed Wind Dir Waves Ship Positions

Alpine Moment

Last reported at 2016-May-18 00:08 UTC. Time now 2016-May-28 10:02 UTC.
Position N 01°55' E 102°21'.
Warning: this ship's position is 10 days out of date.

Length 183 m; draft 9.9 m.

Type: Tanker. MMSI: 477185800.

Date/timePositionNaut miles runAvg speedWind from/ knotsBaromVisibWave heightAir tempDewpointWater temp
2016-May-18 00:08N 01°55' E 102°21'813.8
2016-May-17 23:33N 01°52' E 102°28'1413.5
2016-May-17 22:33N 01°46' E 102°41'1513.7
2016-May-17 21:28N 01°40' E 102°54'5112.8
2016-May-17 17:29N 01°12' E 103°37'5 5.9
2016-May-17 16:33N 01°15' E 103°41'0 0.0
2016-May-17 06:11N 01°15' E 103°41'0 0.0
2016-May-17 05:23N 01°15' E 103°41'0 0.0
2016-May-17 04:05N 01°15' E 103°41'0 0.0
2016-May-17 03:23N 01°15' E 103°41'0 0.0
2016-May-17 01:20N 01°15' E 103°41'0 0.0
2016-May-17 00:17N 01°15' E 103°41'0 0.0
2016-May-16 23:23N 01°15' E 103°41'0 0.0
2016-May-16 22:05N 01°15' E 103°41'0 0.0
2016-May-16 21:14N 01°15' E 103°41'0 0.0
2016-May-16 19:17N 01°15' E 103°41'0 0.0
2016-May-16 15:32N 01°15' E 103°41'0 0.0
2016-May-16 14:23N 01°15' E 103°41'0 0.0
2016-May-16 13:29N 01°15' E 103°41'0 0.0
2016-May-16 12:11N 01°15' E 103°41'0 0.0
2016-May-15 19:29N 01°15' E 103°41'0 0.0
2016-May-15 13:29N 01°15' E 103°41'0 0.0
2016-May-15 11:32N 01°15' E 103°41'0 0.0
2016-May-15 08:33N 01°15' E 103°41'0 0.0
2016-May-15 07:33N 01°15' E 103°41'6 5.8
2016-May-15 06:33N 01°14' E 103°47'2 1.6
2016-May-15 05:22N 01°13' E 103°49'0 0.0
2016-May-15 04:31N 01°13' E 103°49'0 0.1
2016-May-15 03:33N 01°13' E 103°49'6 5.6
2016-May-15 02:33N 01°14' E 103°54'6 5.8
2016-May-15 01:34N 01°16' E 103°60'2 2.4
2016-May-15 00:33N 01°16' E 104°02'8 5.9
2016-May-14 23:09N 01°19' E 104°10'1 0.0
2016-May-13 03:32N 01°19' E 104°10'3 1.4
2016-May-13 01:29N 01°17' E 104°08'6 6.5
2016-May-13 00:32N 01°15' E 104°02'1111.0
2016-May-12 23:33N 01°12' E 103°52'4 4.4
2016-May-12 22:33N 01°14' E 103°48'0 0.1
2016-May-12 21:29N 01°14' E 103°48'0 0.0
2016-May-12 20:29N 01°14' E 103°48'0 0.0
2016-May-12 19:26N 01°14' E 103°48'0 0.0
2016-May-12 18:32N 01°14' E 103°48'0 0.1
2016-May-12 17:32N 01°14' E 103°48'0 0.1
2016-May-12 16:32N 01°14' E 103°48'0 0.0
2016-May-12 15:32N 01°14' E 103°48'0 0.0
2016-May-12 14:32N 01°14' E 103°48'0 0.0
2016-May-12 13:32N 01°14' E 103°48'0 0.0
2016-May-12 12:32N 01°14' E 103°48'0 0.0
2016-May-12 11:32N 01°14' E 103°48'0 0.0
2016-May-12 10:29N 01°14' E 103°48'0 0.0
2016-May-12 09:32N 01°14' E 103°48'0 0.0
2016-May-12 08:29N 01°14' E 103°48'0 0.0
2016-May-12 07:32N 01°14' E 103°48'0 0.2
2016-May-12 06:32N 01°14' E 103°48'0 0.0
2016-May-12 05:29N 01°14' E 103°48'0 0.2
2016-May-12 04:32N 01°14' E 103°48'4 0.1
2016-May-10 03:32N 01°14' E 103°44'2 2.1
2016-May-10 02:33N 01°15' E 103°46'3 2.9
2016-May-10 01:32N 01°13' E 103°49'0 0.0
2016-May-10 00:23N 01°13' E 103°49'0 0.0
2016-May-09 23:32N 01°13' E 103°49'3 3.0
2016-May-09 22:33N 01°13' E 103°52'9 9.1
2016-May-09 21:33N 01°16' E 104°00'7 6.7
2016-May-09 20:33N 01°16' E 104°07'  

Dump ship's entire track history